sensor_id;sensor_type;location;lat;lon;timestamp;P1;durP1;ratioP1;P2;durP2;ratioP2
48733;SDS011;34530;52.084;5.146;2022-12-18T00:02:04;55.03;;;30.27;;
48733;SDS011;34530;52.084;5.146;2022-12-18T00:04:29;56.45;;;31.05;;
48733;SDS011;34530;52.084;5.146;2022-12-18T00:06:55;48.67;;;29.20;;
48733;SDS011;34530;52.084;5.146;2022-12-18T00:09:21;49.38;;;29.92;;
48733;SDS011;34530;52.084;5.146;2022-12-18T00:11:47;51.53;;;29.02;;
48733;SDS011;34530;52.084;5.146;2022-12-18T00:14:13;52.85;;;29.13;;
48733;SDS011;34530;52.084;5.146;2022-12-18T00:16:39;53.00;;;30.02;;
48733;SDS011;34530;52.084;5.146;2022-12-18T00:19:05;53.92;;;29.52;;
48733;SDS011;34530;52.084;5.146;2022-12-18T00:21:32;51.65;;;28.23;;
48733;SDS011;34530;52.084;5.146;2022-12-18T00:23:59;49.05;;;28.45;;
48733;SDS011;34530;52.084;5.146;2022-12-18T00:26:26;47.78;;;27.33;;
48733;SDS011;34530;52.084;5.146;2022-12-18T00:28:54;48.55;;;27.45;;
48733;SDS011;34530;52.084;5.146;2022-12-18T00:31:23;46.38;;;27.35;;
48733;SDS011;34530;52.084;5.146;2022-12-18T00:33:50;43.35;;;26.30;;
48733;SDS011;34530;52.084;5.146;2022-12-18T00:36:17;47.05;;;27.30;;
48733;SDS011;34530;52.084;5.146;2022-12-18T00:38:44;40.15;;;24.30;;
48733;SDS011;34530;52.084;5.146;2022-12-18T00:41:10;42.47;;;26.05;;
48733;SDS011;34530;52.084;5.146;2022-12-18T00:43:37;45.42;;;27.25;;
48733;SDS011;34530;52.084;5.146;2022-12-18T00:46:03;44.15;;;25.33;;
48733;SDS011;34530;52.084;5.146;2022-12-18T00:48:29;43.30;;;26.08;;
48733;SDS011;34530;52.084;5.146;2022-12-18T00:50:55;44.63;;;24.65;;
48733;SDS011;34530;52.084;5.146;2022-12-18T00:53:20;45.15;;;25.40;;
48733;SDS011;34530;52.084;5.146;2022-12-18T00:55:46;44.00;;;25.77;;
48733;SDS011;34530;52.084;5.146;2022-12-18T00:58:12;44.47;;;24.23;;
48733;SDS011;34530;52.084;5.146;2022-12-18T01:00:39;45.15;;;25.63;;
48733;SDS011;34530;52.084;5.146;2022-12-18T01:03:05;45.30;;;24.27;;
48733;SDS011;34530;52.084;5.146;2022-12-18T01:05:31;41.88;;;24.33;;
48733;SDS011;34530;52.084;5.146;2022-12-18T01:07:58;39.92;;;23.98;;
48733;SDS011;34530;52.084;5.146;2022-12-18T01:10:23;40.47;;;23.05;;
48733;SDS011;34530;52.084;5.146;2022-12-18T01:12:49;39.28;;;23.45;;
48733;SDS011;34530;52.084;5.146;2022-12-18T01:15:15;42.33;;;23.80;;
48733;SDS011;34530;52.084;5.146;2022-12-18T01:17:41;38.72;;;22.92;;
48733;SDS011;34530;52.084;5.146;2022-12-18T01:20:08;35.88;;;22.80;;
48733;SDS011;34530;52.084;5.146;2022-12-18T01:22:34;38.00;;;23.65;;
48733;SDS011;34530;52.084;5.146;2022-12-18T01:25:01;40.75;;;23.83;;
48733;SDS011;34530;52.084;5.146;2022-12-18T01:27:27;37.65;;;22.30;;
48733;SDS011;34530;52.084;5.146;2022-12-18T01:29:52;36.17;;;22.15;;
48733;SDS011;34530;52.084;5.146;2022-12-18T01:32:18;39.70;;;23.80;;
48733;SDS011;34530;52.084;5.146;2022-12-18T01:34:44;34.55;;;21.60;;
48733;SDS011;34530;52.084;5.146;2022-12-18T01:37:10;36.78;;;22.27;;
48733;SDS011;34530;52.084;5.146;2022-12-18T01:39:35;36.38;;;22.30;;
48733;SDS011;34530;52.084;5.146;2022-12-18T01:42:11;34.67;;;21.23;;
48733;SDS011;34530;52.084;5.146;2022-12-18T01:44:52;35.65;;;21.00;;
48733;SDS011;34530;52.084;5.146;2022-12-18T01:50:17;35.33;;;20.70;;
48733;SDS011;34530;52.084;5.146;2022-12-18T01:52:53;33.17;;;20.95;;
48733;SDS011;34530;52.084;5.146;2022-12-18T01:55:22;33.95;;;21.20;;
48733;SDS011;34530;52.084;5.146;2022-12-18T01:57:51;33.70;;;20.65;;
48733;SDS011;34530;52.084;5.146;2022-12-18T02:00:19;33.72;;;20.23;;
48733;SDS011;34530;52.084;5.146;2022-12-18T02:02:46;34.85;;;20.65;;
48733;SDS011;34530;52.084;5.146;2022-12-18T02:05:13;33.75;;;21.73;;
48733;SDS011;34530;52.084;5.146;2022-12-18T02:07:55;31.85;;;19.92;;
48733;SDS011;34530;52.084;5.146;2022-12-18T02:10:47;33.67;;;20.15;;
48733;SDS011;34530;52.084;5.146;2022-12-18T02:16:46;31.80;;;19.92;;
48733;SDS011;34530;52.084;5.146;2022-12-18T02:22:21;29.67;;;18.73;;
48733;SDS011;34530;52.084;5.146;2022-12-18T02:27:33;30.02;;;19.08;;
48733;SDS011;34530;52.084;5.146;2022-12-18T02:30:02;30.83;;;18.60;;
48733;SDS011;34530;52.084;5.146;2022-12-18T02:32:31;30.33;;;18.98;;
48733;SDS011;34530;52.084;5.146;2022-12-18T02:35:01;28.10;;;18.15;;
48733;SDS011;34530;52.084;5.146;2022-12-18T02:37:29;30.67;;;19.20;;
48733;SDS011;34530;52.084;5.146;2022-12-18T02:39:56;27.95;;;17.73;;
48733;SDS011;34530;52.084;5.146;2022-12-18T02:42:24;29.38;;;18.42;;
48733;SDS011;34530;52.084;5.146;2022-12-18T02:44:51;28.90;;;18.42;;
48733;SDS011;34530;52.084;5.146;2022-12-18T02:47:21;28.00;;;18.02;;
48733;SDS011;34530;52.084;5.146;2022-12-18T02:50:11;25.88;;;16.80;;
48733;SDS011;34530;52.084;5.146;2022-12-18T02:58:28;25.27;;;17.25;;
48733;SDS011;34530;52.084;5.146;2022-12-18T03:03:52;25.88;;;16.92;;
48733;SDS011;34530;52.084;5.146;2022-12-18T03:06:41;24.70;;;15.57;;
48733;SDS011;34530;52.084;5.146;2022-12-18T03:09:15;23.25;;;16.02;;
48733;SDS011;34530;52.084;5.146;2022-12-18T03:11:45;27.35;;;17.25;;
48733;SDS011;34530;52.084;5.146;2022-12-18T03:14:35;25.92;;;16.48;;
48733;SDS011;34530;52.084;5.146;2022-12-18T03:17:05;25.50;;;16.40;;
48733;SDS011;34530;52.084;5.146;2022-12-18T03:19:34;21.83;;;15.32;;
48733;SDS011;34530;52.084;5.146;2022-12-18T03:22:01;24.67;;;15.50;;
48733;SDS011;34530;52.084;5.146;2022-12-18T03:24:29;24.08;;;16.70;;
48733;SDS011;34530;52.084;5.146;2022-12-18T03:27:00;23.45;;;14.93;;
48733;SDS011;34530;52.084;5.146;2022-12-18T03:29:43;25.90;;;15.45;;
48733;SDS011;34530;52.084;5.146;2022-12-18T03:32:21;23.20;;;15.27;;
48733;SDS011;34530;52.084;5.146;2022-12-18T03:34:53;23.48;;;15.27;;
48733;SDS011;34530;52.084;5.146;2022-12-18T03:37:22;24.75;;;16.10;;
48733;SDS011;34530;52.084;5.146;2022-12-18T03:39:48;23.42;;;14.52;;
48733;SDS011;34530;52.084;5.146;2022-12-18T03:42:21;24.63;;;15.50;;
48733;SDS011;34530;52.084;5.146;2022-12-18T03:45:02;21.45;;;14.80;;
48733;SDS011;34530;52.084;5.146;2022-12-18T03:52:48;23.83;;;14.98;;
48733;SDS011;34530;52.084;5.146;2022-12-18T03:55:19;26.10;;;15.50;;
48733;SDS011;34530;52.084;5.146;2022-12-18T03:57:47;24.17;;;15.13;;
48733;SDS011;34530;52.084;5.146;2022-12-18T04:00:14;21.88;;;16.20;;
48733;SDS011;34530;52.084;5.146;2022-12-18T04:02:47;21.95;;;14.50;;
48733;SDS011;34530;52.084;5.146;2022-12-18T04:05:18;24.58;;;14.98;;
48733;SDS011;34530;52.084;5.146;2022-12-18T04:07:45;24.20;;;14.85;;
48733;SDS011;34530;52.084;5.146;2022-12-18T04:10:12;23.42;;;14.02;;
48733;SDS011;34530;52.084;5.146;2022-12-18T04:12:39;20.05;;;13.65;;
48733;SDS011;34530;52.084;5.146;2022-12-18T04:15:05;22.67;;;14.45;;
48733;SDS011;34530;52.084;5.146;2022-12-18T04:17:32;21.33;;;14.77;;
48733;SDS011;34530;52.084;5.146;2022-12-18T04:19:57;22.20;;;14.68;;
48733;SDS011;34530;52.084;5.146;2022-12-18T04:22:23;21.73;;;13.75;;
48733;SDS011;34530;52.084;5.146;2022-12-18T04:24:48;21.98;;;15.20;;
48733;SDS011;34530;52.084;5.146;2022-12-18T04:27:14;19.55;;;13.40;;
48733;SDS011;34530;52.084;5.146;2022-12-18T04:29:39;23.48;;;13.80;;
48733;SDS011;34530;52.084;5.146;2022-12-18T04:32:05;19.98;;;13.25;;
48733;SDS011;34530;52.084;5.146;2022-12-18T04:34:31;20.77;;;13.43;;
48733;SDS011;34530;52.084;5.146;2022-12-18T04:36:57;21.92;;;14.32;;
48733;SDS011;34530;52.084;5.146;2022-12-18T04:39:23;21.90;;;14.23;;
48733;SDS011;34530;52.084;5.146;2022-12-18T04:41:48;22.83;;;14.80;;
48733;SDS011;34530;52.084;5.146;2022-12-18T04:44:14;18.42;;;13.20;;
48733;SDS011;34530;52.084;5.146;2022-12-18T04:46:39;19.95;;;13.73;;
48733;SDS011;34530;52.084;5.146;2022-12-18T04:49:05;19.02;;;13.23;;
48733;SDS011;34530;52.084;5.146;2022-12-18T04:51:30;20.25;;;13.63;;
48733;SDS011;34530;52.084;5.146;2022-12-18T04:53:56;20.75;;;13.02;;
48733;SDS011;34530;52.084;5.146;2022-12-18T04:56:22;18.85;;;12.82;;
48733;SDS011;34530;52.084;5.146;2022-12-18T04:58:47;19.75;;;13.23;;
48733;SDS011;34530;52.084;5.146;2022-12-18T05:01:14;19.13;;;12.85;;
48733;SDS011;34530;52.084;5.146;2022-12-18T05:03:40;19.90;;;13.32;;
48733;SDS011;34530;52.084;5.146;2022-12-18T05:06:06;21.95;;;13.20;;
48733;SDS011;34530;52.084;5.146;2022-12-18T05:08:32;20.02;;;13.00;;
48733;SDS011;34530;52.084;5.146;2022-12-18T05:11:08;20.23;;;12.63;;
48733;SDS011;34530;52.084;5.146;2022-12-18T05:13:35;16.42;;;11.82;;
48733;SDS011;34530;52.084;5.146;2022-12-18T05:16:01;18.17;;;12.02;;
48733;SDS011;34530;52.084;5.146;2022-12-18T05:18:27;18.38;;;12.68;;
48733;SDS011;34530;52.084;5.146;2022-12-18T05:20:53;20.13;;;13.38;;
48733;SDS011;34530;52.084;5.146;2022-12-18T05:23:19;17.00;;;12.38;;
48733;SDS011;34530;52.084;5.146;2022-12-18T05:25:47;18.08;;;12.80;;
48733;SDS011;34530;52.084;5.146;2022-12-18T05:28:21;16.38;;;11.27;;
48733;SDS011;34530;52.084;5.146;2022-12-18T05:30:48;17.52;;;11.60;;
48733;SDS011;34530;52.084;5.146;2022-12-18T05:33:19;17.80;;;12.43;;
48733;SDS011;34530;52.084;5.146;2022-12-18T05:35:56;16.92;;;11.43;;
48733;SDS011;34530;52.084;5.146;2022-12-18T05:38:23;17.63;;;12.07;;
48733;SDS011;34530;52.084;5.146;2022-12-18T05:40:50;16.30;;;11.68;;
48733;SDS011;34530;52.084;5.146;2022-12-18T05:43:17;16.05;;;10.95;;
48733;SDS011;34530;52.084;5.146;2022-12-18T05:45:44;16.13;;;10.90;;
48733;SDS011;34530;52.084;5.146;2022-12-18T05:48:10;16.98;;;11.73;;
48733;SDS011;34530;52.084;5.146;2022-12-18T05:50:36;15.05;;;10.30;;
48733;SDS011;34530;52.084;5.146;2022-12-18T05:53:03;14.85;;;11.05;;
48733;SDS011;34530;52.084;5.146;2022-12-18T05:55:33;16.42;;;11.18;;
48733;SDS011;34530;52.084;5.146;2022-12-18T05:58:00;15.73;;;11.32;;
48733;SDS011;34530;52.084;5.146;2022-12-18T06:00:26;16.15;;;11.10;;
48733;SDS011;34530;52.084;5.146;2022-12-18T06:02:51;15.82;;;11.10;;
48733;SDS011;34530;52.084;5.146;2022-12-18T06:05:17;14.93;;;10.73;;
48733;SDS011;34530;52.084;5.146;2022-12-18T06:07:43;17.00;;;11.63;;
48733;SDS011;34530;52.084;5.146;2022-12-18T06:10:08;16.55;;;11.27;;
48733;SDS011;34530;52.084;5.146;2022-12-18T06:12:34;16.88;;;11.38;;
48733;SDS011;34530;52.084;5.146;2022-12-18T06:14:59;13.93;;;10.25;;
48733;SDS011;34530;52.084;5.146;2022-12-18T06:17:31;17.40;;;10.52;;
48733;SDS011;34530;52.084;5.146;2022-12-18T06:19:58;14.90;;;10.25;;
48733;SDS011;34530;52.084;5.146;2022-12-18T06:22:24;13.52;;;10.10;;
48733;SDS011;34530;52.084;5.146;2022-12-18T06:24:51;14.60;;;10.45;;
48733;SDS011;34530;52.084;5.146;2022-12-18T06:27:16;13.98;;;10.48;;
48733;SDS011;34530;52.084;5.146;2022-12-18T06:29:42;13.60;;;10.30;;
48733;SDS011;34530;52.084;5.146;2022-12-18T06:32:07;14.85;;;9.73;;
48733;SDS011;34530;52.084;5.146;2022-12-18T06:34:33;14.50;;;9.57;;
48733;SDS011;34530;52.084;5.146;2022-12-18T06:36:59;15.23;;;10.63;;
48733;SDS011;34530;52.084;5.146;2022-12-18T06:39:28;14.32;;;9.63;;
48733;SDS011;34530;52.084;5.146;2022-12-18T06:41:54;15.70;;;10.25;;
48733;SDS011;34530;52.084;5.146;2022-12-18T06:44:19;12.50;;;9.65;;
48733;SDS011;34530;52.084;5.146;2022-12-18T06:46:45;13.60;;;10.30;;
48733;SDS011;34530;52.084;5.146;2022-12-18T06:49:11;12.82;;;9.93;;
48733;SDS011;34530;52.084;5.146;2022-12-18T06:51:37;14.15;;;9.95;;
48733;SDS011;34530;52.084;5.146;2022-12-18T06:54:03;12.45;;;9.30;;
48733;SDS011;34530;52.084;5.146;2022-12-18T06:56:28;13.50;;;9.38;;
48733;SDS011;34530;52.084;5.146;2022-12-18T06:58:54;12.95;;;9.05;;
48733;SDS011;34530;52.084;5.146;2022-12-18T07:01:20;13.13;;;9.82;;
48733;SDS011;34530;52.084;5.146;2022-12-18T07:03:46;13.40;;;8.70;;
48733;SDS011;34530;52.084;5.146;2022-12-18T07:06:17;13.80;;;9.32;;
48733;SDS011;34530;52.084;5.146;2022-12-18T07:08:44;12.60;;;9.50;;
48733;SDS011;34530;52.084;5.146;2022-12-18T07:11:11;11.43;;;8.55;;
48733;SDS011;34530;52.084;5.146;2022-12-18T07:13:37;13.88;;;9.18;;
48733;SDS011;34530;52.084;5.146;2022-12-18T07:16:07;12.68;;;9.68;;
48733;SDS011;34530;52.084;5.146;2022-12-18T07:18:34;13.27;;;8.63;;
48733;SDS011;34530;52.084;5.146;2022-12-18T07:21:03;12.98;;;8.77;;
48733;SDS011;34530;52.084;5.146;2022-12-18T07:23:31;12.10;;;8.98;;
48733;SDS011;34530;52.084;5.146;2022-12-18T07:26:00;11.32;;;8.75;;
48733;SDS011;34530;52.084;5.146;2022-12-18T07:28:27;11.13;;;9.07;;
48733;SDS011;34530;52.084;5.146;2022-12-18T07:30:53;10.43;;;8.20;;
48733;SDS011;34530;52.084;5.146;2022-12-18T07:33:18;10.77;;;8.10;;
48733;SDS011;34530;52.084;5.146;2022-12-18T07:35:44;12.60;;;9.15;;
48733;SDS011;34530;52.084;5.146;2022-12-18T07:38:09;12.32;;;9.00;;
48733;SDS011;34530;52.084;5.146;2022-12-18T07:40:35;11.98;;;8.43;;
48733;SDS011;34530;52.084;5.146;2022-12-18T07:43:00;10.57;;;7.93;;
48733;SDS011;34530;52.084;5.146;2022-12-18T07:45:26;11.40;;;8.77;;
48733;SDS011;34530;52.084;5.146;2022-12-18T07:47:52;13.93;;;9.80;;
48733;SDS011;34530;52.084;5.146;2022-12-18T07:50:17;10.50;;;8.00;;
48733;SDS011;34530;52.084;5.146;2022-12-18T07:52:43;12.45;;;8.15;;
48733;SDS011;34530;52.084;5.146;2022-12-18T07:55:09;11.63;;;8.35;;
48733;SDS011;34530;52.084;5.146;2022-12-18T07:57:34;10.15;;;7.63;;
48733;SDS011;34530;52.084;5.146;2022-12-18T08:00:00;11.32;;;7.95;;
48733;SDS011;34530;52.084;5.146;2022-12-18T08:02:25;10.00;;;8.05;;
48733;SDS011;34530;52.084;5.146;2022-12-18T08:04:51;11.02;;;8.40;;
48733;SDS011;34530;52.084;5.146;2022-12-18T08:07:17;11.02;;;8.30;;
48733;SDS011;34530;52.084;5.146;2022-12-18T08:09:42;11.02;;;7.88;;
48733;SDS011;34530;52.084;5.146;2022-12-18T08:12:08;12.93;;;8.10;;
48733;SDS011;34530;52.084;5.146;2022-12-18T08:14:33;11.43;;;7.57;;
48733;SDS011;34530;52.084;5.146;2022-12-18T08:16:59;9.80;;;7.72;;
48733;SDS011;34530;52.084;5.146;2022-12-18T08:19:24;9.82;;;7.53;;
48733;SDS011;34530;52.084;5.146;2022-12-18T08:21:50;10.80;;;7.90;;
48733;SDS011;34530;52.084;5.146;2022-12-18T08:24:15;9.95;;;7.40;;
48733;SDS011;34530;52.084;5.146;2022-12-18T08:26:41;10.05;;;7.57;;
48733;SDS011;34530;52.084;5.146;2022-12-18T08:29:07;11.40;;;8.05;;
48733;SDS011;34530;52.084;5.146;2022-12-18T08:31:33;9.40;;;7.28;;
48733;SDS011;34530;52.084;5.146;2022-12-18T08:33:59;11.52;;;8.23;;
48733;SDS011;34530;52.084;5.146;2022-12-18T08:36:24;9.15;;;6.75;;
48733;SDS011;34530;52.084;5.146;2022-12-18T08:38:50;9.55;;;7.18;;
48733;SDS011;34530;52.084;5.146;2022-12-18T08:41:16;9.35;;;6.95;;
48733;SDS011;34530;52.084;5.146;2022-12-18T08:43:43;10.63;;;7.38;;
48733;SDS011;34530;52.084;5.146;2022-12-18T08:46:31;8.75;;;6.82;;
48733;SDS011;34530;52.084;5.146;2022-12-18T08:49:03;8.68;;;7.15;;
48733;SDS011;34530;52.084;5.146;2022-12-18T08:51:30;7.90;;;6.53;;
48733;SDS011;34530;52.084;5.146;2022-12-18T08:53:55;8.82;;;6.70;;
48733;SDS011;34530;52.084;5.146;2022-12-18T08:56:21;9.10;;;6.93;;
48733;SDS011;34530;52.084;5.146;2022-12-18T08:58:46;9.60;;;6.90;;
48733;SDS011;34530;52.084;5.146;2022-12-18T09:01:12;8.52;;;6.68;;
48733;SDS011;34530;52.084;5.146;2022-12-18T09:03:39;8.98;;;6.85;;
48733;SDS011;34530;52.084;5.146;2022-12-18T09:06:05;9.52;;;7.53;;
48733;SDS011;34530;52.084;5.146;2022-12-18T09:08:31;10.05;;;7.05;;
48733;SDS011;34530;52.084;5.146;2022-12-18T09:10:56;9.63;;;7.20;;
48733;SDS011;34530;52.084;5.146;2022-12-18T09:13:22;8.48;;;6.75;;
48733;SDS011;34530;52.084;5.146;2022-12-18T09:15:49;11.45;;;6.60;;
48733;SDS011;34530;52.084;5.146;2022-12-18T09:18:19;9.90;;;6.57;;
48733;SDS011;34530;52.084;5.146;2022-12-18T09:20:46;7.63;;;6.38;;
48733;SDS011;34530;52.084;5.146;2022-12-18T09:23:11;9.18;;;6.60;;
48733;SDS011;34530;52.084;5.146;2022-12-18T09:25:38;8.45;;;6.28;;
48733;SDS011;34530;52.084;5.146;2022-12-18T09:28:14;7.97;;;6.75;;
48733;SDS011;34530;52.084;5.146;2022-12-18T09:30:45;9.73;;;6.55;;
48733;SDS011;34530;52.084;5.146;2022-12-18T09:33:12;9.85;;;7.00;;
48733;SDS011;34530;52.084;5.146;2022-12-18T09:35:39;10.43;;;6.45;;
48733;SDS011;34530;52.084;5.146;2022-12-18T09:38:05;7.40;;;6.20;;
48733;SDS011;34530;52.084;5.146;2022-12-18T09:40:34;9.15;;;6.38;;
48733;SDS011;34530;52.084;5.146;2022-12-18T09:43:14;7.75;;;6.35;;
48733;SDS011;34530;52.084;5.146;2022-12-18T09:46:05;9.20;;;6.45;;
48733;SDS011;34530;52.084;5.146;2022-12-18T09:48:52;8.80;;;6.45;;
48733;SDS011;34530;52.084;5.146;2022-12-18T09:51:26;8.75;;;6.22;;
48733;SDS011;34530;52.084;5.146;2022-12-18T09:54:03;8.32;;;6.07;;
48733;SDS011;34530;52.084;5.146;2022-12-18T09:56:34;9.07;;;6.50;;
48733;SDS011;34530;52.084;5.146;2022-12-18T09:59:04;8.75;;;7.07;;
48733;SDS011;34530;52.084;5.146;2022-12-18T10:01:31;9.55;;;6.57;;
48733;SDS011;34530;52.084;5.146;2022-12-18T10:03:57;9.75;;;6.25;;
48733;SDS011;34530;52.084;5.146;2022-12-18T10:17:28;8.43;;;6.35;;
48733;SDS011;34530;52.084;5.146;2022-12-18T10:19:59;8.07;;;6.20;;
48733;SDS011;34530;52.084;5.146;2022-12-18T10:28:17;10.32;;;5.60;;
48733;SDS011;34530;52.084;5.146;2022-12-18T10:30:44;10.40;;;6.10;;
48733;SDS011;34530;52.084;5.146;2022-12-18T10:33:11;7.72;;;5.32;;
48733;SDS011;34530;52.084;5.146;2022-12-18T10:35:48;7.57;;;5.43;;
48733;SDS011;34530;52.084;5.146;2022-12-18T10:43:47;8.25;;;5.45;;
48733;SDS011;34530;52.084;5.146;2022-12-18T10:46:17;11.48;;;6.28;;
48733;SDS011;34530;52.084;5.146;2022-12-18T10:51:31;7.78;;;6.03;;
48733;SDS011;34530;52.084;5.146;2022-12-18T10:56:33;9.63;;;6.03;;
48733;SDS011;34530;52.084;5.146;2022-12-18T11:01:44;8.20;;;5.70;;
48733;SDS011;34530;52.084;5.146;2022-12-18T11:04:31;10.02;;;6.30;;
48733;SDS011;34530;52.084;5.146;2022-12-18T11:06:58;6.85;;;5.20;;
48733;SDS011;34530;52.084;5.146;2022-12-18T11:09:28;9.57;;;6.07;;
48733;SDS011;34530;52.084;5.146;2022-12-18T11:11:58;7.40;;;5.80;;
48733;SDS011;34530;52.084;5.146;2022-12-18T11:16:59;7.45;;;5.18;;
48733;SDS011;34530;52.084;5.146;2022-12-18T11:21:54;6.85;;;5.50;;
48733;SDS011;34530;52.084;5.146;2022-12-18T11:24:29;7.93;;;5.55;;
48733;SDS011;34530;52.084;5.146;2022-12-18T11:27:05;7.82;;;5.70;;
48733;SDS011;34530;52.084;5.146;2022-12-18T11:29:42;7.07;;;5.40;;
48733;SDS011;34530;52.084;5.146;2022-12-18T11:34:39;6.90;;;5.45;;
48733;SDS011;34530;52.084;5.146;2022-12-18T11:37:11;7.47;;;6.22;;
48733;SDS011;34530;52.084;5.146;2022-12-18T11:45:20;9.15;;;5.90;;
48733;SDS011;34530;52.084;5.146;2022-12-18T11:50:57;7.05;;;5.60;;
48733;SDS011;34530;52.084;5.146;2022-12-18T11:53:25;5.70;;;5.10;;
48733;SDS011;34530;52.084;5.146;2022-12-18T11:55:58;6.20;;;5.30;;
48733;SDS011;34530;52.084;5.146;2022-12-18T11:58:28;8.32;;;5.72;;
48733;SDS011;34530;52.084;5.146;2022-12-18T12:20:20;8.73;;;5.30;;
48733;SDS011;34530;52.084;5.146;2022-12-18T12:23:27;6.50;;;4.80;;
48733;SDS011;34530;52.084;5.146;2022-12-18T12:25:50;7.50;;;5.45;;
48733;SDS011;34530;52.084;5.146;2022-12-18T12:39:08;7.25;;;5.05;;
48733;SDS011;34530;52.084;5.146;2022-12-18T12:41:39;6.82;;;5.05;;
48733;SDS011;34530;52.084;5.146;2022-12-18T12:44:30;8.02;;;5.45;;
48733;SDS011;34530;52.084;5.146;2022-12-18T12:47:05;6.82;;;5.00;;
48733;SDS011;34530;52.084;5.146;2022-12-18T12:49:39;5.63;;;4.63;;
48733;SDS011;34530;52.084;5.146;2022-12-18T12:52:11;7.30;;;5.20;;
48733;SDS011;34530;52.084;5.146;2022-12-18T12:54:45;6.95;;;5.10;;
48733;SDS011;34530;52.084;5.146;2022-12-18T12:57:31;6.50;;;5.57;;
48733;SDS011;34530;52.084;5.146;2022-12-18T13:02:44;5.32;;;4.75;;
48733;SDS011;34530;52.084;5.146;2022-12-18T13:05:39;5.90;;;4.68;;
48733;SDS011;34530;52.084;5.146;2022-12-18T13:08:28;6.18;;;4.68;;
48733;SDS011;34530;52.084;5.146;2022-12-18T13:10:56;7.30;;;5.35;;
48733;SDS011;34530;52.084;5.146;2022-12-18T13:13:49;6.55;;;5.20;;
48733;SDS011;34530;52.084;5.146;2022-12-18T13:16:20;7.15;;;5.28;;
48733;SDS011;34530;52.084;5.146;2022-12-18T13:18:54;6.97;;;5.20;;
48733;SDS011;34530;52.084;5.146;2022-12-18T13:21:25;6.50;;;4.80;;
48733;SDS011;34530;52.084;5.146;2022-12-18T13:23:54;6.22;;;5.13;;
48733;SDS011;34530;52.084;5.146;2022-12-18T13:28:55;6.72;;;4.88;;
48733;SDS011;34530;52.084;5.146;2022-12-18T13:36:40;6.07;;;4.95;;
48733;SDS011;34530;52.084;5.146;2022-12-18T13:39:10;6.55;;;5.43;;
48733;SDS011;34530;52.084;5.146;2022-12-18T13:41:39;7.55;;;5.03;;
48733;SDS011;34530;52.084;5.146;2022-12-18T13:46:51;8.65;;;5.13;;
48733;SDS011;34530;52.084;5.146;2022-12-18T13:52:00;13.57;;;5.07;;
48733;SDS011;34530;52.084;5.146;2022-12-18T13:54:32;9.02;;;5.50;;
48733;SDS011;34530;52.084;5.146;2022-12-18T13:57:04;8.40;;;5.00;;
48733;SDS011;34530;52.084;5.146;2022-12-18T13:59:40;8.50;;;5.60;;
48733;SDS011;34530;52.084;5.146;2022-12-18T14:04:38;9.43;;;5.38;;
48733;SDS011;34530;52.084;5.146;2022-12-18T14:07:05;9.45;;;5.43;;
48733;SDS011;34530;52.084;5.146;2022-12-18T14:09:40;9.05;;;5.40;;
48733;SDS011;34530;52.084;5.146;2022-12-18T14:12:14;6.90;;;4.88;;
48733;SDS011;34530;52.084;5.146;2022-12-18T14:15:01;9.80;;;5.28;;
48733;SDS011;34530;52.084;5.146;2022-12-18T14:17:27;9.23;;;5.35;;
48733;SDS011;34530;52.084;5.146;2022-12-18T14:19:52;7.50;;;5.22;;
48733;SDS011;34530;52.084;5.146;2022-12-18T14:22:20;8.85;;;5.43;;
48733;SDS011;34530;52.084;5.146;2022-12-18T14:27:41;11.32;;;5.78;;
48733;SDS011;34530;52.084;5.146;2022-12-18T14:30:25;8.07;;;5.53;;
48733;SDS011;34530;52.084;5.146;2022-12-18T14:33:03;11.50;;;5.55;;
48733;SDS011;34530;52.084;5.146;2022-12-18T14:35:34;11.02;;;5.18;;
48733;SDS011;34530;52.084;5.146;2022-12-18T14:38:48;10.63;;;5.55;;
48733;SDS011;34530;52.084;5.146;2022-12-18T14:40:58;10.35;;;6.03;;
48733;SDS011;34530;52.084;5.146;2022-12-18T14:43:26;8.38;;;5.55;;
48733;SDS011;34530;52.084;5.146;2022-12-18T14:45:53;11.18;;;6.03;;
48733;SDS011;34530;52.084;5.146;2022-12-18T14:48:21;8.82;;;5.90;;
48733;SDS011;34530;52.084;5.146;2022-12-18T14:51:06;11.27;;;5.63;;
48733;SDS011;34530;52.084;5.146;2022-12-18T14:53:39;9.52;;;5.72;;
48733;SDS011;34530;52.084;5.146;2022-12-18T14:56:18;7.78;;;5.50;;
48733;SDS011;34530;52.084;5.146;2022-12-18T14:59:19;11.48;;;6.25;;
48733;SDS011;34530;52.084;5.146;2022-12-18T15:04:48;13.52;;;6.68;;
48733;SDS011;34530;52.084;5.146;2022-12-18T15:07:42;19.15;;;7.10;;
48733;SDS011;34530;52.084;5.146;2022-12-18T15:10:12;11.38;;;6.80;;
48733;SDS011;34530;52.084;5.146;2022-12-18T15:12:43;9.68;;;6.22;;
48733;SDS011;34530;52.084;5.146;2022-12-18T15:18:01;17.48;;;7.70;;
48733;SDS011;34530;52.084;5.146;2022-12-18T15:23:23;9.52;;;6.32;;
48733;SDS011;34530;52.084;5.146;2022-12-18T15:26:17;18.75;;;6.72;;
48733;SDS011;34530;52.084;5.146;2022-12-18T15:28:46;14.35;;;7.05;;
48733;SDS011;34530;52.084;5.146;2022-12-18T15:33:59;11.95;;;7.13;;
48733;SDS011;34530;52.084;5.146;2022-12-18T15:36:45;12.52;;;6.43;;
48733;SDS011;34530;52.084;5.146;2022-12-18T15:39:12;13.13;;;6.85;;
48733;SDS011;34530;52.084;5.146;2022-12-18T15:41:38;10.38;;;6.15;;
48733;SDS011;34530;52.084;5.146;2022-12-18T15:44:16;13.63;;;6.95;;
48733;SDS011;34530;52.084;5.146;2022-12-18T15:46:48;10.60;;;6.43;;
48733;SDS011;34530;52.084;5.146;2022-12-18T15:49:13;9.93;;;6.97;;
48733;SDS011;34530;52.084;5.146;2022-12-18T15:51:39;13.77;;;6.93;;
48733;SDS011;34530;52.084;5.146;2022-12-18T15:54:05;11.00;;;6.72;;
48733;SDS011;34530;52.084;5.146;2022-12-18T15:56:33;11.50;;;6.88;;
48733;SDS011;34530;52.084;5.146;2022-12-18T15:59:19;9.88;;;6.30;;
48733;SDS011;34530;52.084;5.146;2022-12-18T16:01:49;12.80;;;7.28;;
48733;SDS011;34530;52.084;5.146;2022-12-18T16:04:17;11.70;;;6.57;;
48733;SDS011;34530;52.084;5.146;2022-12-18T16:06:45;10.45;;;6.20;;
48733;SDS011;34530;52.084;5.146;2022-12-18T16:09:11;10.25;;;6.80;;
48733;SDS011;34530;52.084;5.146;2022-12-18T16:11:37;11.52;;;6.63;;
48733;SDS011;34530;52.084;5.146;2022-12-18T16:16:43;11.40;;;6.95;;
48733;SDS011;34530;52.084;5.146;2022-12-18T16:19:13;13.60;;;7.38;;
48733;SDS011;34530;52.084;5.146;2022-12-18T16:21:39;10.00;;;6.82;;
48733;SDS011;34530;52.084;5.146;2022-12-18T16:24:05;11.98;;;7.15;;
48733;SDS011;34530;52.084;5.146;2022-12-18T16:26:30;10.40;;;6.88;;
48733;SDS011;34530;52.084;5.146;2022-12-18T16:28:56;10.30;;;7.10;;
48733;SDS011;34530;52.084;5.146;2022-12-18T16:31:21;9.95;;;6.88;;
48733;SDS011;34530;52.084;5.146;2022-12-18T16:33:47;11.25;;;7.53;;
48733;SDS011;34530;52.084;5.146;2022-12-18T16:36:13;10.27;;;6.63;;
48733;SDS011;34530;52.084;5.146;2022-12-18T16:38:38;11.10;;;6.93;;
48733;SDS011;34530;52.084;5.146;2022-12-18T16:41:11;8.85;;;6.68;;
48733;SDS011;34530;52.084;5.146;2022-12-18T16:43:56;9.25;;;7.07;;
48733;SDS011;34530;52.084;5.146;2022-12-18T16:46:22;10.68;;;6.65;;
48733;SDS011;34530;52.084;5.146;2022-12-18T16:48:47;11.05;;;7.10;;
48733;SDS011;34530;52.084;5.146;2022-12-18T16:51:13;10.23;;;6.65;;
48733;SDS011;34530;52.084;5.146;2022-12-18T16:53:39;10.55;;;6.30;;
48733;SDS011;34530;52.084;5.146;2022-12-18T16:56:05;12.05;;;7.72;;
48733;SDS011;34530;52.084;5.146;2022-12-18T16:58:30;10.35;;;7.20;;
48733;SDS011;34530;52.084;5.146;2022-12-18T17:00:56;9.90;;;7.03;;
48733;SDS011;34530;52.084;5.146;2022-12-18T17:03:22;9.43;;;6.57;;
48733;SDS011;34530;52.084;5.146;2022-12-18T17:05:48;9.45;;;6.75;;